createdAt,value
2023-03-06T00:01:05.139Z,69.61
2023-03-06T00:03:33.877Z,69.36
2023-03-06T00:06:01.636Z,69.59
2023-03-06T00:08:29.909Z,69.92
2023-03-06T00:10:57.549Z,69.51
2023-03-06T00:13:26.885Z,69.30
2023-03-06T00:15:54.058Z,68.84
2023-03-06T00:18:21.192Z,70.21
2023-03-06T00:20:48.410Z,69.92
2023-03-06T00:23:15.796Z,69.52
2023-03-06T00:25:45.153Z,69.64
2023-03-06T00:28:14.964Z,69.74
2023-03-06T00:30:42.845Z,69.78
2023-03-06T00:33:10.969Z,69.78
2023-03-06T00:35:41.684Z,69.68
2023-03-06T00:38:12.148Z,70.10
2023-03-06T00:40:39.623Z,69.43
2023-03-06T00:43:06.665Z,70.28
2023-03-06T00:45:33.848Z,69.80
2023-03-06T00:48:01.401Z,69.80
2023-03-06T00:50:28.453Z,69.88
2023-03-06T00:52:55.436Z,69.64
2023-03-06T00:55:25.050Z,70.24
2023-03-06T00:57:52.115Z,70.66
2023-03-06T01:00:20.058Z,70.18
2023-03-06T01:02:50.972Z,69.66
2023-03-06T01:05:18.180Z,70.30
2023-03-06T01:07:45.139Z,70.67
2023-03-06T01:10:12.967Z,70.23
2023-03-06T01:12:41.171Z,70.64
2023-03-06T01:15:09.224Z,69.89
2023-03-06T01:17:36.314Z,69.81
2023-03-06T01:20:04.843Z,70.22
2023-03-06T01:22:31.934Z,70.13
2023-03-06T01:25:00.025Z,70.83
2023-03-06T01:27:27.141Z,70.61
2023-03-06T01:29:54.159Z,70.68
2023-03-06T01:32:22.130Z,70.13
2023-03-06T01:34:50.276Z,70.70
2023-03-06T01:37:17.695Z,70.53
2023-03-06T01:39:44.792Z,70.50
2023-03-06T01:42:12.297Z,70.85
2023-03-06T01:45:05.526Z,71.13
2023-03-06T01:47:36.522Z,71.16
2023-03-06T01:50:10.539Z,70.86
2023-03-06T01:52:54.837Z,71.29
2023-03-06T01:55:35.375Z,71.33
2023-03-06T01:58:11.360Z,71.58
2023-03-06T02:00:39.449Z,71.62
2023-03-06T02:03:15.150Z,71.80
2023-03-06T02:05:44.133Z,72.23
2023-03-06T02:08:15.580Z,72.44
2023-03-06T02:10:58.752Z,72.65
2023-03-06T02:13:25.937Z,71.72
2023-03-06T02:15:52.997Z,71.88
2023-03-06T02:18:20.318Z,72.16
2023-03-06T02:20:53.659Z,72.31
2023-03-06T02:23:57.687Z,72.44
2023-03-06T02:26:28.165Z,71.98
2023-03-06T02:28:57.550Z,71.74
2023-03-06T02:31:30.286Z,71.80
2023-03-06T02:34:16.320Z,72.69
2023-03-06T02:36:48.805Z,72.79
2023-03-06T02:39:19.679Z,72.03
2023-03-06T02:41:49.833Z,73.08
2023-03-06T02:44:18.245Z,72.60
2023-03-06T02:46:45.368Z,73.25
2023-03-06T02:49:13.004Z,73.88
2023-03-06T02:51:40.574Z,73.06
2023-03-06T02:54:07.996Z,73.14
2023-03-06T02:56:35.317Z,73.96
2023-03-06T02:59:03.216Z,73.18
2023-03-06T03:01:31.183Z,73.70
2023-03-06T03:03:58.206Z,73.25
2023-03-06T03:06:25.321Z,74.24
2023-03-06T03:08:53.192Z,73.55
2023-03-06T03:11:20.667Z,74.19
2023-03-06T03:13:47.690Z,74.01
2023-03-06T03:16:20.459Z,74.32
2023-03-06T03:18:48.204Z,73.71
2023-03-06T03:21:18.693Z,73.68
2023-03-06T03:23:47.426Z,74.23
2023-03-06T03:26:22.595Z,73.68
2023-03-06T03:29:00.755Z,74.07
2023-03-06T03:31:27.937Z,73.80
2023-03-06T03:33:55.285Z,73.60
2023-03-06T03:36:23.155Z,74.50
2023-03-06T03:38:50.592Z,73.79
2023-03-06T03:41:17.825Z,74.01
2023-03-06T03:43:45.257Z,73.93
2023-03-06T03:46:15.041Z,74.38
2023-03-06T03:48:42.926Z,73.48
2023-03-06T03:51:13.749Z,73.32
2023-03-06T03:53:46.028Z,73.66
2023-03-06T03:56:16.193Z,73.75
2023-03-06T03:58:53.214Z,73.46
2023-03-06T04:01:21.361Z,73.69
2023-03-06T04:03:48.565Z,73.58
2023-03-06T04:06:17.884Z,74.21
2023-03-06T04:08:45.430Z,74.48
2023-03-06T04:11:12.476Z,74.24
2023-03-06T04:13:40.024Z,74.03
2023-03-06T04:16:07.838Z,74.83
2023-03-06T04:18:37.394Z,74.75
2023-03-06T04:21:06.283Z,74.01
2023-03-06T04:23:34.502Z,74.34
2023-03-06T04:26:02.044Z,75.08
2023-03-06T04:28:29.439Z,74.82
2023-03-06T04:30:57.958Z,73.95
2023-03-06T04:33:25.365Z,74.44
2023-03-06T04:35:52.646Z,74.51
2023-03-06T04:38:24.889Z,74.33
2023-03-06T04:40:51.964Z,74.58
2023-03-06T04:43:19.504Z,75.10
2023-03-06T04:45:46.613Z,74.61
2023-03-06T04:48:17.228Z,74.76
2023-03-06T04:50:45.110Z,74.62
2023-03-06T04:53:12.430Z,75.24
2023-03-06T04:55:39.485Z,75.30
2023-03-06T04:58:06.565Z,74.47
2023-03-06T05:00:33.900Z,75.07
2023-03-06T05:03:02.096Z,75.35
2023-03-06T05:05:29.749Z,75.82
2023-03-06T05:07:57.407Z,75.34
2023-03-06T05:10:24.731Z,75.70
2023-03-06T05:12:51.962Z,75.96
2023-03-06T05:15:19.220Z,76.61
2023-03-06T05:17:47.759Z,76.31
2023-03-06T05:20:16.706Z,77.19
2023-03-06T05:22:44.511Z,76.76
2023-03-06T05:25:12.638Z,76.55
2023-03-06T05:27:39.944Z,76.43
2023-03-06T05:30:08.505Z,76.63
2023-03-06T05:32:36.260Z,77.42
2023-03-06T05:35:05.069Z,76.98
2023-03-06T05:37:33.511Z,76.85
2023-03-06T05:40:00.742Z,77.47
2023-03-06T05:42:31.246Z,77.59
2023-03-06T05:44:58.338Z,77.98
2023-03-06T05:47:25.560Z,78.32
2023-03-06T05:49:52.764Z,78.30
2023-03-06T05:52:19.866Z,78.07
2023-03-06T05:54:51.859Z,77.85
2023-03-06T05:57:21.570Z,78.56
2023-03-06T05:59:50.124Z,78.20
2023-03-06T06:02:19.626Z,78.16
2023-03-06T06:04:47.360Z,78.22
2023-03-06T06:07:16.421Z,78.51
2023-03-06T06:09:45.776Z,78.19
2023-03-06T06:12:14.314Z,78.82
2023-03-06T06:14:41.310Z,78.48
2023-03-06T06:17:08.533Z,78.53
2023-03-06T06:19:35.809Z,78.91
2023-03-06T06:22:03.958Z,79.33
2023-03-06T06:24:32.461Z,79.21
2023-03-06T06:27:03.637Z,79.18
2023-03-06T06:29:31.714Z,79.05
2023-03-06T06:31:59.055Z,79.10
2023-03-06T06:34:27.076Z,79.88
2023-03-06T06:36:55.051Z,79.90
2023-03-06T06:39:23.770Z,79.74
2023-03-06T06:42:09.538Z,79.85
2023-03-06T06:44:40.234Z,79.86
2023-03-06T06:47:22.430Z,80.79
2023-03-06T06:49:55.742Z,80.66
2023-03-06T06:52:25.502Z,80.37
2023-03-06T06:54:53.901Z,80.65
2023-03-06T06:57:22.162Z,80.76
2023-03-06T06:59:51.270Z,80.54
2023-03-06T07:02:19.820Z,80.65
2023-03-06T07:05:02.344Z,81.63
2023-03-06T07:07:31.717Z,81.00
2023-03-06T07:09:59.126Z,81.78
2023-03-06T07:12:26.278Z,81.72
2023-03-06T07:14:53.367Z,82.07
2023-03-06T07:17:20.539Z,81.49
2023-03-06T07:19:48.352Z,81.75
2023-03-06T07:22:15.580Z,82.25
2023-03-06T07:24:42.751Z,81.83
2023-03-06T07:27:09.813Z,81.91
2023-03-06T07:29:37.087Z,81.94
2023-03-06T07:32:04.396Z,82.09
2023-03-06T07:34:31.914Z,82.68
2023-03-06T07:36:59.057Z,82.76
2023-03-06T07:39:28.225Z,82.46
2023-03-06T07:41:55.287Z,82.71
2023-03-06T07:44:23.009Z,82.38
2023-03-06T07:46:50.284Z,82.47
2023-03-06T07:49:18.263Z,82.38
2023-03-06T07:51:45.485Z,83.04
2023-03-06T07:54:12.599Z,82.21
2023-03-06T07:56:39.968Z,82.02
2023-03-06T07:59:07.119Z,82.21
2023-03-06T08:01:34.388Z,82.58
2023-03-06T08:04:02.222Z,82.55
2023-03-06T08:06:29.482Z,82.20
2023-03-06T08:08:57.260Z,82.15
2023-03-06T08:11:30.278Z,81.64
2023-03-06T08:14:01.296Z,81.43
2023-03-06T08:16:30.675Z,81.76
2023-03-06T08:18:58.235Z,81.82
2023-03-06T08:21:28.164Z,81.31
2023-03-06T08:23:56.641Z,80.97
2023-03-06T08:26:29.752Z,80.06
2023-03-06T08:28:59.834Z,79.82
2023-03-06T08:31:36.394Z,79.64
2023-03-06T08:34:07.398Z,79.18
2023-03-06T08:36:34.795Z,78.77
2023-03-06T08:39:02.435Z,77.81
2023-03-06T08:41:30.314Z,77.21
2023-03-06T08:43:57.727Z,77.06
2023-03-06T08:46:27.245Z,77.46
2023-03-06T08:48:59.483Z,77.33
2023-03-06T08:51:29.048Z,77.40
2023-03-06T08:53:59.959Z,76.82
2023-03-06T08:56:33.046Z,76.94
2023-03-06T08:59:04.081Z,76.92
2023-03-06T09:01:37.879Z,77.43
2023-03-06T09:04:10.588Z,77.39
2023-03-06T09:06:42.573Z,77.14
2023-03-06T09:09:10.939Z,76.79
2023-03-06T09:11:38.868Z,75.75
2023-03-06T09:14:06.509Z,75.18
2023-03-06T09:16:33.967Z,74.09
2023-03-06T09:19:01.401Z,74.96
2023-03-06T09:21:28.821Z,74.97
2023-03-06T09:23:56.272Z,75.04
2023-03-06T09:26:32.808Z,74.66
2023-03-06T09:29:07.877Z,74.65
2023-03-06T09:31:35.043Z,74.98
2023-03-06T09:34:02.232Z,74.34
2023-03-06T09:36:29.405Z,74.79
2023-03-06T09:38:57.076Z,74.46
2023-03-06T09:41:29.437Z,74.15
2023-03-06T09:44:05.105Z,72.26
2023-03-06T09:47:20.182Z,73.08
2023-03-06T09:50:47.038Z,73.18
2023-03-06T09:54:03.011Z,73.33
2023-03-06T09:56:34.525Z,73.13
2023-03-06T09:59:22.910Z,73.30
2023-03-06T10:02:09.470Z,72.90
2023-03-06T10:04:44.710Z,73.40
2023-03-06T10:07:25.588Z,72.44
2023-03-06T10:10:04.217Z,72.39
2023-03-06T10:12:42.585Z,71.43
2023-03-06T10:15:26.058Z,70.71
2023-03-06T10:17:53.562Z,70.71
2023-03-06T10:20:41.612Z,69.51
2023-03-06T10:23:52.790Z,69.57
2023-03-06T10:26:28.013Z,70.57
2023-03-06T10:30:01.307Z,69.78
2023-03-06T10:32:55.290Z,68.86
2023-03-06T10:35:30.644Z,69.39
2023-03-06T10:38:16.311Z,68.83
2023-03-06T10:41:01.113Z,69.74
2023-03-06T10:43:28.556Z,68.89
2023-03-06T10:45:55.862Z,66.52
2023-03-06T10:48:27.096Z,66.78
2023-03-06T10:51:20.981Z,65.26
2023-03-06T10:53:54.956Z,65.84
2023-03-06T10:56:35.486Z,65.10
2023-03-06T10:59:19.941Z,64.32
2023-03-06T11:01:57.214Z,62.93
2023-03-06T11:04:36.786Z,62.89
2023-03-06T11:07:20.692Z,62.38
2023-03-06T11:10:19.601Z,62.06
2023-03-06T11:13:07.696Z,61.66
2023-03-06T11:15:34.989Z,62.14
2023-03-06T11:18:23.872Z,61.64
2023-03-06T11:20:54.681Z,60.52
2023-03-06T11:23:39.669Z,60.40
2023-03-06T11:26:15.946Z,61.40
2023-03-06T11:29:03.291Z,60.91
2023-03-06T11:32:10.213Z,60.45
2023-03-06T11:34:53.811Z,60.68
2023-03-06T11:37:57.508Z,61.19
2023-03-06T11:40:34.067Z,60.88
2023-03-06T11:43:30.134Z,61.56
2023-03-06T11:46:11.458Z,61.06
2023-03-06T11:48:54.172Z,60.80
2023-03-06T11:51:34.944Z,60.25
2023-03-06T11:54:03.091Z,60.15
2023-03-06T11:56:50.645Z,61.24
2023-03-06T11:59:46.132Z,60.30
2023-03-06T12:02:28.631Z,61.45
2023-03-06T12:05:53.355Z,60.78
2023-03-06T12:08:46.469Z,61.88
2023-03-06T12:11:35.933Z,60.93
2023-03-06T12:14:16.395Z,60.33
2023-03-06T12:17:09.293Z,59.36
2023-03-06T12:20:07.277Z,60.75
2023-03-06T12:22:53.402Z,61.15
2023-03-06T12:25:49.288Z,60.99
2023-03-06T12:28:36.756Z,61.99
2023-03-06T12:32:01.832Z,61.11
2023-03-06T12:34:51.182Z,60.17
2023-03-06T12:37:29.220Z,60.87
2023-03-06T12:40:23.944Z,61.66
2023-03-06T12:43:22.872Z,59.97
2023-03-06T12:45:56.100Z,59.42
2023-03-06T12:48:29.605Z,59.15
2023-03-06T12:50:57.880Z,59.93
2023-03-06T12:53:31.352Z,58.12
2023-03-06T12:56:02.279Z,58.49
2023-03-06T12:58:30.050Z,58.45
2023-03-06T13:01:09.909Z,58.28
2023-03-06T13:04:01.456Z,57.66
2023-03-06T13:06:54.970Z,58.63
2023-03-06T13:09:40.405Z,57.12
2023-03-06T13:12:19.908Z,56.33
2023-03-06T13:14:54.062Z,57.47
2023-03-06T13:17:24.267Z,57.98
2023-03-06T13:20:20.487Z,57.33
2023-03-06T13:22:48.187Z,56.37
2023-03-06T13:25:21.064Z,56.69
2023-03-06T13:27:54.414Z,56.20
2023-03-06T13:30:28.434Z,56.03
2023-03-06T13:32:56.558Z,55.17
2023-03-06T13:35:52.649Z,56.01
2023-03-06T13:39:06.266Z,56.07
2023-03-06T13:41:37.615Z,56.25
2023-03-06T13:44:28.270Z,56.23
2023-03-06T13:47:02.004Z,56.52
2023-03-06T13:49:30.056Z,57.06
2023-03-06T13:52:23.346Z,58.02
2023-03-06T13:55:24.173Z,57.66
2023-03-06T13:58:41.592Z,57.86
2023-03-06T14:01:59.373Z,57.19
2023-03-06T14:04:38.688Z,57.40
2023-03-06T14:07:19.754Z,57.59
2023-03-06T14:10:25.323Z,56.62
2023-03-06T14:12:55.412Z,57.50
2023-03-06T14:15:55.659Z,56.90
2023-03-06T14:18:27.119Z,56.92
2023-03-06T14:21:00.728Z,56.63
2023-03-06T14:23:32.266Z,57.22
2023-03-06T14:26:05.919Z,57.15
2023-03-06T14:28:34.885Z,56.69
2023-03-06T14:31:05.035Z,56.64
2023-03-06T14:33:34.960Z,56.57
2023-03-06T14:36:08.310Z,57.08
2023-03-06T14:38:45.762Z,56.58
2023-03-06T14:41:14.147Z,57.05
2023-03-06T14:43:41.401Z,56.88
2023-03-06T14:46:21.164Z,55.72
2023-03-06T14:48:49.823Z,56.77
2023-03-06T14:51:23.597Z,55.67
2023-03-06T14:53:54.216Z,55.62
2023-03-06T14:56:27.569Z,54.11
2023-03-06T14:59:06.491Z,53.52
2023-03-06T15:01:48.656Z,53.52
2023-03-06T15:04:27.974Z,54.14
2023-03-06T15:06:58.185Z,54.51
2023-03-06T15:09:25.377Z,54.38
2023-03-06T15:12:01.780Z,55.33
2023-03-06T15:14:31.070Z,54.69
2023-03-06T15:17:17.686Z,54.52
2023-03-06T15:19:48.806Z,55.40
2023-03-06T15:22:41.751Z,54.14
2023-03-06T15:25:32.158Z,54.18
2023-03-06T15:28:22.158Z,55.62
2023-03-06T15:31:21.417Z,55.58
2023-03-06T15:34:23.455Z,55.95
2023-03-06T15:36:55.921Z,56.41
2023-03-06T15:39:41.145Z,56.72
2023-03-06T15:42:26.643Z,56.11
2023-03-06T15:45:05.767Z,56.31
2023-03-06T15:47:32.902Z,55.81
2023-03-06T15:50:00.085Z,56.40
2023-03-06T15:52:27.235Z,56.15
2023-03-06T15:54:54.363Z,56.82
2023-03-06T15:57:26.680Z,55.74
2023-03-06T15:59:54.485Z,55.73
2023-03-06T16:02:24.348Z,55.98
2023-03-06T16:04:52.526Z,56.35
2023-03-06T16:07:20.730Z,56.24
2023-03-06T16:09:48.758Z,55.30
2023-03-06T16:12:21.109Z,55.11
2023-03-06T16:14:51.497Z,55.64
2023-03-06T16:17:18.769Z,55.91
2023-03-06T16:19:46.027Z,56.58
2023-03-06T16:22:13.890Z,55.77
2023-03-06T16:24:41.980Z,55.20
2023-03-06T16:27:20.597Z,55.27
2023-03-06T16:29:47.924Z,56.46
2023-03-06T16:32:15.141Z,56.15
2023-03-06T16:34:42.341Z,56.52
2023-03-06T16:37:13.203Z,56.16
2023-03-06T16:39:40.321Z,56.85
2023-03-06T16:42:07.622Z,56.26
2023-03-06T16:44:35.181Z,57.35
2023-03-06T16:47:02.279Z,56.98
2023-03-06T16:49:29.508Z,57.40
2023-03-06T16:51:56.645Z,57.58
2023-03-06T16:54:26.794Z,57.96
2023-03-06T16:56:54.685Z,57.40
2023-03-06T16:59:22.060Z,57.29
2023-03-06T17:01:49.497Z,58.24
2023-03-06T17:04:16.754Z,58.11
2023-03-06T17:06:43.908Z,57.99
2023-03-06T17:09:11.760Z,58.85
2023-03-06T17:11:39.353Z,59.16
2023-03-06T17:14:07.076Z,58.97
2023-03-06T17:16:36.576Z,58.56
2023-03-06T17:19:03.757Z,58.38
2023-03-06T17:21:31.064Z,59.09
2023-03-06T17:23:58.387Z,58.82
2023-03-06T17:26:26.633Z,59.22
2023-03-06T17:28:55.926Z,59.39
2023-03-06T17:31:27.838Z,59.37
2023-03-06T17:34:00.358Z,58.92
2023-03-06T17:36:31.993Z,59.25
2023-03-06T17:39:02.168Z,60.26
2023-03-06T17:41:29.990Z,60.07
2023-03-06T17:43:58.468Z,60.26
2023-03-06T17:46:26.115Z,60.60
2023-03-06T17:48:53.572Z,60.45
2023-03-06T17:51:21.086Z,60.46
2023-03-06T17:53:49.416Z,60.45
2023-03-06T17:56:16.658Z,61.45
2023-03-06T17:58:44.054Z,61.19
2023-03-06T18:01:18.368Z,61.18
2023-03-06T18:03:49.285Z,61.52
2023-03-06T18:06:18.469Z,60.78
2023-03-06T18:08:46.122Z,61.52
2023-03-06T18:11:14.434Z,61.03
2023-03-06T18:13:44.139Z,61.60
2023-03-06T18:16:14.997Z,62.51
2023-03-06T18:18:42.141Z,61.26
2023-03-06T18:21:12.795Z,60.94
2023-03-06T18:23:40.902Z,61.52
2023-03-06T18:26:20.964Z,61.78
2023-03-06T18:28:53.054Z,62.59
2023-03-06T18:31:25.499Z,61.80
2023-03-06T18:33:55.642Z,62.13
2023-03-06T18:36:27.026Z,61.75
2023-03-06T18:38:54.692Z,62.04
2023-03-06T18:41:22.866Z,61.99
2023-03-06T18:43:55.924Z,62.28
2023-03-06T18:46:24.120Z,63.14
2023-03-06T18:48:51.457Z,63.10
2023-03-06T18:51:20.237Z,62.77
2023-03-06T18:53:47.974Z,63.62
2023-03-06T18:56:22.876Z,63.64
2023-03-06T18:58:50.537Z,63.66
2023-03-06T19:01:18.598Z,63.55
2023-03-06T19:03:46.697Z,63.35
2023-03-06T19:06:17.246Z,63.44
2023-03-06T19:08:44.932Z,64.08
2023-03-06T19:11:16.649Z,64.45
2023-03-06T19:13:44.537Z,64.40
2023-03-06T19:16:21.373Z,64.43
2023-03-06T19:18:48.849Z,64.69
2023-03-06T19:21:19.727Z,64.58
2023-03-06T19:23:47.728Z,65.16
2023-03-06T19:26:16.546Z,64.89
2023-03-06T19:28:43.649Z,64.51
2023-03-06T19:31:20.147Z,64.21
2023-03-06T19:33:49.463Z,65.35
2023-03-06T19:36:18.688Z,65.01
2023-03-06T19:38:50.434Z,65.42
2023-03-06T19:41:17.562Z,65.18
2023-03-06T19:43:44.611Z,65.09
2023-03-06T19:46:13.929Z,65.86
2023-03-06T19:48:42.621Z,65.41
2023-03-06T19:51:10.583Z,65.02
2023-03-06T19:53:41.833Z,65.04
2023-03-06T19:56:14.997Z,65.62
2023-03-06T19:58:42.683Z,65.31
2023-03-06T20:01:16.635Z,65.49
2023-03-06T20:03:44.776Z,65.67
2023-03-06T20:06:18.761Z,66.15
2023-03-06T20:08:47.800Z,65.38
2023-03-06T20:11:25.333Z,65.63
2023-03-06T20:13:53.323Z,65.87
2023-03-06T20:16:20.703Z,65.95
2023-03-06T20:18:47.745Z,66.27
2023-03-06T20:21:15.837Z,65.54
2023-03-06T20:23:43.309Z,66.67
2023-03-06T20:26:14.371Z,66.66
2023-03-06T20:28:42.685Z,66.20
2023-03-06T20:31:20.095Z,66.49
2023-03-06T20:33:50.680Z,66.16
2023-03-06T20:36:28.998Z,66.46
2023-03-06T20:39:00.183Z,66.90
2023-03-06T20:41:30.307Z,66.92
2023-03-06T20:44:03.014Z,67.18
2023-03-06T20:46:30.656Z,66.69
2023-03-06T20:48:58.349Z,66.84
2023-03-06T20:51:31.805Z,67.11
2023-03-06T20:54:01.388Z,66.82
2023-03-06T20:56:32.168Z,67.11
2023-03-06T20:58:59.832Z,67.35
2023-03-06T21:01:33.267Z,67.08
2023-03-06T21:04:04.339Z,67.91
2023-03-06T21:06:32.302Z,67.39
2023-03-06T21:09:01.460Z,67.56
2023-03-06T21:11:28.854Z,67.66
2023-03-06T21:13:57.140Z,67.56
2023-03-06T21:16:26.814Z,67.07
2023-03-06T21:18:55.631Z,66.84
2023-03-06T21:21:25.979Z,67.49
2023-03-06T21:23:53.165Z,67.81
2023-03-06T21:26:23.462Z,67.98
2023-03-06T21:28:50.990Z,68.43
2023-03-06T21:31:21.748Z,68.35
2023-03-06T21:33:50.403Z,68.17
2023-03-06T21:36:21.488Z,68.24
2023-03-06T21:38:49.994Z,68.83
2023-03-06T21:41:26.796Z,68.73
2023-03-06T21:43:58.445Z,68.53
2023-03-06T21:46:27.703Z,68.65
2023-03-06T21:48:55.709Z,69.14
2023-03-06T21:51:24.164Z,68.51
2023-03-06T21:53:52.917Z,69.02
2023-03-06T21:56:25.044Z,68.89
2023-03-06T21:58:55.854Z,68.48
2023-03-06T22:01:29.169Z,68.93
2023-03-06T22:04:00.526Z,68.39
2023-03-06T22:06:31.190Z,68.57
2023-03-06T22:09:00.308Z,69.10
2023-03-06T22:11:31.479Z,69.09
2023-03-06T22:13:58.947Z,68.91
2023-03-06T22:16:26.169Z,68.93
2023-03-06T22:18:53.255Z,68.60
2023-03-06T22:21:22.617Z,68.55
2023-03-06T22:23:59.966Z,68.86
2023-03-06T22:26:28.818Z,69.54
2023-03-06T22:29:00.325Z,68.99
2023-03-06T22:31:29.075Z,69.35
2023-03-06T22:33:59.209Z,68.61
2023-03-06T22:36:28.615Z,69.36
2023-03-06T22:38:59.865Z,69.67
2023-03-06T22:41:28.833Z,69.22
2023-03-06T22:44:01.687Z,69.61
2023-03-06T22:46:29.241Z,69.40
2023-03-06T22:49:02.182Z,69.41
2023-03-06T22:51:29.910Z,69.88
2023-03-06T22:53:57.145Z,69.63
2023-03-06T22:56:25.642Z,70.20
2023-03-06T22:58:52.864Z,70.02
2023-03-06T23:01:25.320Z,69.74
2023-03-06T23:03:56.613Z,70.31
2023-03-06T23:06:32.568Z,69.66
2023-03-06T23:09:14.666Z,69.61
2023-03-06T23:12:00.649Z,70.14
2023-03-06T23:14:49.813Z,69.42
2023-03-06T23:17:35.592Z,69.69
2023-03-06T23:20:22.134Z,69.91
2023-03-06T23:23:07.990Z,69.96
2023-03-06T23:25:44.554Z,70.35
2023-03-06T23:28:12.444Z,70.17
2023-03-06T23:30:40.189Z,70.07
2023-03-06T23:33:08.460Z,69.97
2023-03-06T23:35:37.864Z,69.72
2023-03-06T23:38:05.442Z,70.17
2023-03-06T23:40:34.577Z,70.85
2023-03-06T23:43:02.473Z,70.15
2023-03-06T23:45:29.991Z,70.31
2023-03-06T23:47:57.253Z,70.66
2023-03-06T23:50:29.328Z,70.30
2023-03-06T23:52:56.515Z,70.68
2023-03-06T23:55:23.642Z,71.43
2023-03-06T23:57:50.715Z,71.10
